Time;durP1;ratioP1;P1;durP2;ratioP2;P2;SDS_P1;SDS_P2;PMS_P1;PMS_P2;Temp;Humidity;BMP_temperature;BMP_pressure;BME280_temperature;BME280_humidity;BME280_pressure;Samples;Min_cycle;Max_cycle;Signal;HPM_P1;HPM_P2
2023/06/12 00:01:19;;;;;;;8.20;4.15;;;;;;;20.51;59.87;101180.59;6254934;22;20027;-78
2023/06/12 00:03:47;;;;;;;8.60;4.47;;;;;;;20.44;60.25;101185.16;6280800;22;20324;-78
2023/06/12 00:06:16;;;;;;;8.82;4.63;;;;;;;20.46;60.61;101183.91;6228075;22;20016;-77
2023/06/12 00:08:42;;;;;;;9.80;5.40;;;;;;;20.58;59.54;101181.63;6281673;22;20315;-77
2023/06/12 00:11:11;;;;;;;9.50;4.68;;;;;;;20.60;59.19;101181.47;6251918;22;20007;-78
2023/06/12 00:13:37;;;;;;;6.45;5.20;;;;;;;20.64;56.91;101178.16;6255707;22;20473;-77
2023/06/12 00:16:03;;;;;;;7.03;5.03;;;;;;;20.73;56.08;101182.63;6246009;22;20012;-79
2023/06/12 00:18:28;;;;;;;9.05;5.50;;;;;;;20.65;56.00;101179.88;6206252;22;20008;-78
2023/06/12 00:20:54;;;;;;;9.52;5.93;;;;;;;20.51;57.35;101183.38;6280443;22;20027;-78
2023/06/12 00:23:19;;;;;;;7.55;6.25;;;;;;;20.46;58.43;101194.19;6228484;22;20031;-78
2023/06/12 00:25:45;;;;;;;13.23;5.50;;;;;;;20.33;59.15;101184.50;6253063;22;20018;-78
2023/06/12 00:28:10;;;;;;;8.30;5.88;;;;;;;20.17;61.49;101187.31;6253419;22;20320;-79
2023/06/12 00:30:36;;;;;;;10.07;6.55;;;;;;;20.22;59.92;101190.44;6280356;22;20012;-78
2023/06/12 00:33:01;;;;;;;9.85;6.43;;;;;;;20.38;58.58;101181.16;6202875;22;20312;-78
2023/06/12 00:35:27;;;;;;;9.82;6.88;;;;;;;20.24;58.89;101185.53;6202075;22;20088;-78
2023/06/12 00:37:52;;;;;;;9.02;6.28;;;;;;;20.18;59.94;101189.03;6279767;22;20037;-78
2023/06/12 00:40:17;;;;;;;15.48;6.32;;;;;;;20.13;59.97;101189.53;6225994;22;20095;-77
2023/06/12 00:42:45;;;;;;;8.05;6.80;;;;;;;20.09;61.58;101187.31;6227716;22;20012;-78
2023/06/12 00:45:16;;;;;;;9.02;7.10;;;;;;;19.98;61.21;101185.75;6226947;22;20079;-76
2023/06/12 00:47:42;;;;;;;13.68;6.57;;;;;;;19.99;61.17;101191.16;6251970;22;20053;-76
2023/06/12 00:50:11;;;;;;;9.60;6.68;;;;;;;20.08;59.18;101186.44;6226386;22;20008;-78
2023/06/12 00:52:40;;;;;;;8.32;6.75;;;;;;;19.89;61.73;101186.78;6225180;22;20011;-78
2023/06/12 00:55:06;;;;;;;12.15;7.00;;;;;;;19.88;60.55;101185.94;6225320;22;20023;-78
2023/06/12 00:57:32;;;;;;;10.48;7.95;;;;;;;19.73;61.26;101182.97;6277504;22;20025;-78
2023/06/12 01:00:00;;;;;;;10.95;7.45;;;;;;;19.79;62.03;101179.53;6226141;22;20015;-78
2023/06/12 01:02:26;;;;;;;9.05;7.00;;;;;;;19.85;62.76;101188.22;6221469;23;20027;-78
2023/06/12 01:04:52;;;;;;;8.90;6.40;;;;;;;19.75;63.74;101182.78;6248494;23;20015;-78
2023/06/12 01:07:29;;;;;;;10.40;6.63;;;;;;;19.58;65.49;101177.22;6244170;23;20138;-78
2023/06/12 01:09:54;;;;;;;8.45;6.60;;;;;;;19.62;64.91;101173.06;6247103;23;20034;-78
2023/06/12 01:12:20;;;;;;;8.25;6.15;;;;;;;19.49;64.93;101178.25;6249547;22;20012;-77
2023/06/12 01:14:46;;;;;;;9.52;6.70;;;;;;;19.34;67.60;101183.63;6222748;23;20022;-78
2023/06/12 01:17:12;;;;;;;17.75;6.13;;;;;;;19.31;66.64;101178.41;6225485;23;20407;-75
2023/06/12 01:19:37;;;;;;;8.88;6.25;;;;;;;19.31;65.82;101183.97;6247980;22;20004;-78
2023/06/12 01:22:08;;;;;;;9.70;6.35;;;;;;;19.35;66.14;101177.03;6196522;23;20074;-78
2023/06/12 01:25:10;;;;;;;9.77;6.32;;;;;;;19.35;65.36;101181.69;6249811;22;20008;-78
2023/06/12 01:27:51;;;;;;;6.85;5.85;;;;;;;19.34;65.64;101182.75;6222423;23;20064;-80
2023/06/12 01:31:13;;;;;;;14.35;6.57;;;;;;;19.16;65.93;101185.66;6247273;23;20008;-79
2023/06/12 01:33:42;;;;;;;11.40;6.85;;;;;;;19.21;66.49;101191.59;6157125;23;20013;-78
2023/06/12 01:36:19;;;;;;;8.60;6.43;;;;;;;19.11;65.82;101183.41;6245340;22;20107;-77
2023/06/12 01:38:52;;;;;;;8.52;5.93;;;;;;;19.07;66.21;101190.31;6222350;23;20312;-77
2023/06/12 01:41:21;;;;;;;11.05;6.50;;;;;;;18.96;66.54;101188.75;6248016;23;20375;-78
2023/06/12 01:43:46;;;;;;;13.15;6.07;;;;;;;18.92;67.84;101177.13;6222200;23;20004;-77
2023/06/12 01:46:12;;;;;;;11.25;6.20;;;;;;;18.88;69.00;101180.38;6247054;23;20058;-77
2023/06/12 01:48:39;;;;;;;11.77;6.40;;;;;;;18.92;69.84;101182.66;6222603;23;20012;-78
2023/06/12 01:51:04;;;;;;;8.60;6.00;;;;;;;18.82;68.70;101187.44;6221860;23;20015;-78
2023/06/12 01:53:29;;;;;;;9.95;6.28;;;;;;;18.79;69.70;101185.00;6223238;23;20016;-78
2023/06/12 01:55:56;;;;;;;10.98;6.43;;;;;;;18.74;69.74;101179.06;6246949;23;20452;-78
2023/06/12 01:58:21;;;;;;;9.82;6.57;;;;;;;18.64;70.54;101184.75;6196882;23;20023;-78
2023/06/12 02:00:47;;;;;;;6.72;5.75;;;;;;;18.57;72.33;101185.59;6222284;23;20008;-78
2023/06/12 02:03:12;;;;;;;9.57;6.07;;;;;;;18.48;73.95;101185.56;6219459;23;20522;-77
2023/06/12 02:05:38;;;;;;;13.10;6.90;;;;;;;18.44;76.62;101175.81;6245568;23;20020;-78
2023/06/12 02:08:03;;;;;;;9.63;6.10;;;;;;;18.39;77.00;101181.00;6221260;23;20436;-77
2023/06/12 02:10:29;;;;;;;13.90;5.93;;;;;;;18.38;77.41;101187.56;6247824;23;20022;-78
2023/06/12 02:12:54;;;;;;;7.53;6.38;;;;;;;18.49;77.25;101183.66;6248208;23;20008;-77
2023/06/12 02:15:20;;;;;;;9.35;6.85;;;;;;;18.28;76.73;101181.28;6251093;22;20074;-79
2023/06/12 02:17:46;;;;;;;11.60;6.65;;;;;;;18.27;78.06;101180.41;6223894;23;20012;-77
2023/06/12 02:20:11;;;;;;;16.83;8.55;;;;;;;18.17;77.21;101174.97;6224865;23;20027;-75
2023/06/12 02:22:37;;;;;;;11.38;6.90;;;;;;;18.19;76.85;101177.59;6223879;23;20476;-77
2023/06/12 02:25:03;;;;;;;9.52;6.53;;;;;;;18.14;78.78;101182.75;6248563;23;20016;-78
2023/06/12 02:27:28;;;;;;;9.70;6.57;;;;;;;18.13;78.28;101172.69;6250153;23;20062;-78
2023/06/12 02:29:53;;;;;;;8.98;6.75;;;;;;;18.21;78.47;101175.53;6225472;23;20062;-78
2023/06/12 02:32:19;;;;;;;7.10;6.38;;;;;;;18.12;77.35;101168.22;6252973;23;20004;-78
2023/06/12 02:34:44;;;;;;;8.05;6.38;;;;;;;18.06;78.42;101177.16;6223364;23;20004;-77
2023/06/12 02:37:10;;;;;;;9.32;6.13;;;;;;;18.03;78.97;101171.94;6247558;23;20012;-78
2023/06/12 02:39:35;;;;;;;9.93;6.80;;;;;;;17.94;79.66;101171.03;6246778;23;20027;-78
2023/06/12 02:42:01;;;;;;;7.60;6.47;;;;;;;17.90;80.41;101177.91;6221794;23;20098;-78
2023/06/12 02:44:27;;;;;;;7.20;6.35;;;;;;;17.89;79.35;101176.16;6221115;23;20451;-78
2023/06/12 02:46:56;;;;;;;9.13;6.65;;;;;;;17.91;81.42;101174.13;6246165;23;20011;-78
2023/06/12 02:49:25;;;;;;;8.52;6.10;;;;;;;17.83;81.71;101178.50;6245014;23;20011;-79
2023/06/12 02:51:51;;;;;;;7.88;6.40;;;;;;;17.85;81.29;101175.59;6221901;23;20012;-78
2023/06/12 02:54:18;;;;;;;9.43;6.05;;;;;;;17.76;82.01;101171.88;6220391;23;20012;-78
2023/06/12 02:56:46;;;;;;;8.32;6.57;;;;;;;17.74;82.65;101176.72;6246015;23;20339;-78
2023/06/12 02:59:17;;;;;;;9.02;6.10;;;;;;;17.69;82.64;101181.00;6246545;23;20008;-77
2023/06/12 03:01:43;;;;;;;7.55;5.80;;;;;;;17.65;83.76;101174.91;6248277;22;20082;-77
2023/06/12 03:04:15;;;;;;;8.90;5.53;;;;;;;17.77;81.75;101179.19;6275121;22;20019;-78
2023/06/12 03:06:43;;;;;;;13.13;6.43;;;;;;;17.59;83.99;101179.19;6250400;22;20011;-78
2023/06/12 03:09:09;;;;;;;9.30;6.25;;;;;;;17.59;82.42;101165.34;6277169;22;20019;-76
2023/06/12 03:11:38;;;;;;;8.52;6.15;;;;;;;17.63;83.39;101176.97;6278750;22;20008;-78
2023/06/12 03:14:08;;;;;;;8.93;6.80;;;;;;;17.71;82.58;101179.81;6250183;22;20008;-79
2023/06/12 03:16:33;;;;;;;8.95;5.93;;;;;;;17.83;81.00;101184.06;6278677;22;20079;-78
2023/06/12 03:18:59;;;;;;;14.27;6.63;;;;;;;17.64;82.85;101181.47;6276367;22;20035;-78
2023/06/12 03:21:25;;;;;;;8.27;5.90;;;;;;;17.60;83.49;101185.59;6250998;22;20054;-79
2023/06/12 03:23:51;;;;;;;11.40;6.32;;;;;;;17.58;83.14;101180.22;6251412;22;20039;-78
2023/06/12 03:26:16;;;;;;;12.00;6.88;;;;;;;17.52;84.03;101186.38;6226791;22;20019;-78
2023/06/12 03:28:44;;;;;;;11.68;6.43;;;;;;;17.50;82.82;101179.28;6283083;22;20340;-78
2023/06/12 03:31:10;;;;;;;8.57;6.47;;;;;;;17.46;84.12;101178.72;6251589;22;20419;-78
2023/06/12 03:33:35;;;;;;;11.45;6.75;;;;;;;17.36;85.02;101181.56;6227148;22;20043;-78
2023/06/12 03:36:01;;;;;;;7.93;6.70;;;;;;;17.34;86.09;101178.09;6224685;22;20012;-78
2023/06/12 03:38:27;;;;;;;9.55;5.93;;;;;;;17.35;86.75;101178.94;6223908;22;20077;-78
2023/06/12 03:40:52;;;;;;;9.77;6.95;;;;;;;17.28;86.62;101178.69;6224618;22;20126;-78
2023/06/12 03:43:17;;;;;;;10.45;6.30;;;;;;;17.19;88.37;101183.28;6252460;22;20163;-77
2023/06/12 03:45:43;;;;;;;9.73;6.63;;;;;;;17.20;88.44;101185.03;6253084;22;20313;-77
2023/06/12 03:48:08;;;;;;;11.02;6.72;;;;;;;17.30;88.24;101190.50;6254610;22;20534;-77
2023/06/12 03:50:34;;;;;;;8.88;6.40;;;;;;;17.22;88.93;101187.66;6252156;22;20445;-79
2023/06/12 03:52:59;;;;;;;9.85;7.18;;;;;;;17.30;89.29;101190.50;6277061;22;20022;-79
2023/06/12 03:55:25;;;;;;;8.77;6.63;;;;;;;17.23;90.52;101186.63;6276817;22;20043;-78
2023/06/12 03:57:50;;;;;;;6.97;6.03;;;;;;;17.25;89.50;101181.81;6277620;22;20011;-77
2023/06/12 04:00:16;;;;;;;15.82;7.28;;;;;;;17.25;89.94;101192.88;6276279;22;20010;-77
2023/06/12 04:02:43;;;;;;;7.55;6.68;;;;;;;17.35;89.42;101188.13;6274887;22;20019;-75
2023/06/12 04:05:08;;;;;;;8.88;6.20;;;;;;;17.35;90.17;101190.91;6275722;22;20016;-77
2023/06/12 04:07:36;;;;;;;8.00;5.80;;;;;;;17.53;87.66;101188.13;6198335;22;20066;-76
2023/06/12 04:10:03;;;;;;;9.10;6.18;;;;;;;17.45;89.60;101190.81;6276175;22;20019;-77
2023/06/12 04:12:29;;;;;;;9.32;6.07;;;;;;;17.49;89.69;101192.25;6274692;22;20458;-77
2023/06/12 04:14:55;;;;;;;11.50;6.90;;;;;;;17.47;91.37;101199.84;6221682;22;20015;-77
2023/06/12 04:17:21;;;;;;;9.30;6.07;;;;;;;17.59;91.63;101200.47;6252253;22;20015;-76
2023/06/12 04:19:49;;;;;;;11.63;6.18;;;;;;;17.51;92.85;101195.75;6265218;22;20071;-75
2023/06/12 04:22:16;;;;;;;9.40;6.90;;;;;;;17.51;93.59;101192.06;6274935;22;20023;-74
2023/06/12 04:24:45;;;;;;;9.57;6.35;;;;;;;17.63;92.58;101194.44;6204588;22;20000;-74
2023/06/12 04:27:11;;;;;;;6.70;5.70;;;;;;;17.69;93.10;101197.59;6181765;22;20016;-78
2023/06/12 04:32:13;;;;;;;6.75;6.03;;;;;;;17.89;89.35;101201.97;6208279;22;20015;-76
2023/06/12 04:58:02;;;;;;;10.00;6.70;;;;;;;18.35;87.51;101199.00;6268630;22;20031;-77
2023/06/12 05:00:28;;;;;;;13.35;7.13;;;;;;;18.39;87.44;101196.78;6260539;22;20019;-77
2023/06/12 05:02:55;;;;;;;13.75;7.60;;;;;;;18.39;87.57;101194.84;6207568;22;20041;-78
2023/06/12 05:05:21;;;;;;;9.65;6.55;;;;;;;18.54;86.99;101200.66;6283246;22;20004;-78
2023/06/12 05:07:47;;;;;;;10.77;7.13;;;;;;;18.56;88.20;101198.56;6229300;22;20060;-77
2023/06/12 05:10:16;;;;;;;9.15;7.22;;;;;;;18.67;86.52;101201.06;6228511;22;20011;-77
2023/06/12 05:12:41;;;;;;;10.85;6.82;;;;;;;18.72;86.92;101208.88;6256833;22;20011;-78
2023/06/12 05:15:07;;;;;;;11.43;6.88;;;;;;;18.81;85.48;101204.28;6282892;22;20025;-77
2023/06/12 05:17:33;;;;;;;10.40;7.18;;;;;;;18.88;86.28;101206.22;6229869;22;20106;-78
2023/06/12 05:19:58;;;;;;;10.25;7.22;;;;;;;19.11;83.67;101211.16;6230808;22;20015;-78
2023/06/12 05:22:26;;;;;;;11.30;7.10;;;;;;;19.41;82.80;101200.47;6254706;22;20503;-77
2023/06/12 05:24:52;;;;;;;12.25;7.38;;;;;;;19.55;85.58;101198.94;6203281;22;20039;-78
2023/06/12 05:27:18;;;;;;;12.05;7.70;;;;;;;19.71;83.71;101196.16;6229987;22;20019;-77
2023/06/12 05:29:43;;;;;;;10.60;7.18;;;;;;;20.08;80.05;101200.34;6229535;22;20347;-77
2023/06/12 05:32:08;;;;;;;11.00;7.28;;;;;;;20.47;76.79;101204.28;6253986;22;20082;-76
2023/06/12 05:34:34;;;;;;;9.43;7.28;;;;;;;20.50;78.58;101203.91;6251798;22;20019;-77
2023/06/12 05:36:59;;;;;;;8.63;7.03;;;;;;;20.95;72.61;101199.59;6231190;22;20004;-77
2023/06/12 05:39:25;;;;;;;13.68;7.82;;;;;;;20.84;74.49;101194.41;6205310;22;20035;-78
2023/06/12 05:41:50;;;;;;;12.20;7.50;;;;;;;21.24;72.80;101195.25;6226905;22;20012;-78
2023/06/12 05:44:16;;;;;;;11.05;6.90;;;;;;;21.92;67.89;101204.69;6174876;23;20023;-78
2023/06/12 05:46:41;;;;;;;13.65;7.57;;;;;;;21.58;69.57;101205.16;6174951;23;20323;-78
2023/06/12 05:49:08;;;;;;;11.57;6.68;;;;;;;21.94;66.96;101208.19;6223245;23;20012;-77
2023/06/12 05:51:33;;;;;;;13.40;6.55;;;;;;;22.51;64.20;101205.91;6223625;23;20454;-78
2023/06/12 05:54:01;;;;;;;9.80;6.13;;;;;;;22.88;62.63;101213.31;6222487;23;20016;-78
2023/06/12 05:56:27;;;;;;;11.15;6.15;;;;;;;22.75;63.50;101211.19;6173456;23;20012;-78
2023/06/12 05:58:52;;;;;;;14.90;6.93;;;;;;;22.89;63.41;101209.47;6174369;23;20139;-78
2023/06/12 06:01:21;;;;;;;13.70;6.40;;;;;;;23.30;60.90;101213.63;6174410;23;20071;-78
2023/06/12 06:03:48;;;;;;;14.60;7.35;;;;;;;23.55;58.57;101210.50;6199228;23;20012;-78
2023/06/12 06:06:18;;;;;;;23.80;6.85;;;;;;;23.52;58.90;101208.94;6222494;23;20598;-77
2023/06/12 06:08:44;;;;;;;12.90;6.93;;;;;;;23.49;59.93;101212.13;6234150;23;20015;-76
2023/06/12 06:11:10;;;;;;;11.95;6.68;;;;;;;23.51;59.26;101214.75;6235648;23;20016;-76
2023/06/12 06:13:35;;;;;;;14.32;7.28;;;;;;;23.98;56.25;101214.16;6228320;23;20289;-76
2023/06/12 06:16:04;;;;;;;18.65;7.63;;;;;;;24.21;56.15;101211.13;6222821;23;20022;-76
2023/06/12 06:18:29;;;;;;;15.70;7.05;;;;;;;24.35;56.19;101216.81;6203678;23;20436;-77
2023/06/12 06:20:55;;;;;;;13.45;7.32;;;;;;;24.09;57.21;101211.88;6205590;23;20125;-76
2023/06/12 06:23:21;;;;;;;13.23;7.78;;;;;;;24.00;56.35;101213.97;6211219;23;20099;-77
2023/06/12 06:25:47;;;;;;;15.60;7.85;;;;;;;24.32;55.78;101215.31;6185734;23;20005;-76
2023/06/12 06:28:12;;;;;;;14.82;6.95;;;;;;;24.70;55.72;101217.75;6234424;23;20040;-76
2023/06/12 06:30:38;;;;;;;10.77;6.60;;;;;;;24.75;55.08;101212.38;6210395;23;20066;-76
2023/06/12 06:33:03;;;;;;;16.05;7.00;;;;;;;25.26;52.71;101205.50;6183208;23;20407;-77
2023/06/12 06:35:29;;;;;;;10.60;6.90;;;;;;;25.26;51.96;101208.31;6198676;23;20016;-77
2023/06/12 06:37:55;;;;;;;15.75;6.97;;;;;;;25.02;53.67;101206.94;6254618;23;20014;-76
2023/06/12 06:40:21;;;;;;;12.90;6.55;;;;;;;25.29;52.58;101215.47;6228041;23;20035;-76
2023/06/12 06:42:47;;;;;;;13.65;6.72;;;;;;;25.06;54.33;101210.19;6224971;23;20012;-76
2023/06/12 06:45:12;;;;;;;12.43;6.40;;;;;;;25.48;52.99;101209.06;6175583;23;20008;-76
2023/06/12 06:47:38;;;;;;;10.95;6.45;;;;;;;25.84;52.49;101212.56;6227843;23;20336;-74
2023/06/12 06:50:03;;;;;;;9.15;6.32;;;;;;;26.57;48.84;101212.56;6228298;23;20023;-74
2023/06/12 06:52:29;;;;;;;7.93;5.88;;;;;;;26.25;50.60;101213.47;6257248;23;20030;-74
2023/06/12 06:54:54;;;;;;;9.10;5.28;;;;;;;26.27;49.11;101211.31;6233890;23;20043;-74
2023/06/12 06:57:22;;;;;;;11.55;5.45;;;;;;;26.73;45.67;101210.44;6240562;22;20016;-76
2023/06/12 06:59:48;;;;;;;9.65;5.57;;;;;;;27.41;45.80;101212.75;6169328;23;20076;-74
2023/06/12 07:02:13;;;;;;;7.32;5.07;;;;;;;27.64;44.50;101217.81;6223828;23;20023;-75
2023/06/12 07:04:39;;;;;;;6.40;5.32;;;;;;;27.29;43.95;101220.16;6250030;23;20023;-75
2023/06/12 07:07:05;;;;;;;12.52;5.50;;;;;;;27.34;43.55;101211.09;6205269;23;20035;-74
2023/06/12 07:09:30;;;;;;;7.55;4.90;;;;;;;28.01;42.44;101212.41;6207334;23;20012;-76
2023/06/12 07:11:56;;;;;;;12.20;5.20;;;;;;;27.56;42.84;101211.59;6242073;23;20016;-75
2023/06/12 07:14:21;;;;;;;7.68;4.72;;;;;;;27.98;43.23;101212.00;6243010;23;20003;-75
2023/06/12 07:16:47;;;;;;;9.77;5.40;;;;;;;27.85;43.59;101210.09;6217942;22;20000;-75
2023/06/12 07:19:12;;;;;;;13.90;5.15;;;;;;;28.05;42.32;101204.34;6194617;22;20003;-75
2023/06/12 07:21:38;;;;;;;10.48;4.32;;;;;;;28.30;42.56;101211.91;6220268;22;20060;-75
2023/06/12 07:26:39;;;;;;;6.63;4.82;;;;;;;28.15;42.57;101195.38;6289212;22;20011;-76
2023/06/12 07:29:04;;;;;;;11.23;4.53;;;;;;;28.33;43.64;101192.59;6217228;22;20019;-74
2023/06/12 07:31:30;;;;;;;6.47;4.10;;;;;;;28.77;39.65;101209.53;6195770;22;20091;-75
2023/06/12 07:33:55;;;;;;;8.52;4.82;;;;;;;28.40;40.88;101204.69;6272398;22;20011;-74
2023/06/12 07:36:21;;;;;;;12.63;4.78;;;;;;;27.97;41.42;101205.47;6245022;22;20087;-74
2023/06/12 07:38:46;;;;;;;8.05;4.03;;;;;;;28.36;41.56;101203.41;6244873;22;20012;-74
2023/06/12 07:48:57;;;;;;;8.60;4.85;;;;;;;29.08;39.59;101182.25;6133623;22;20013;-72
2023/06/12 07:56:35;;;;;;;7.95;4.50;;;;;;;29.21;40.39;101199.03;6228237;22;20059;-75
2023/06/12 08:01:36;;;;;;;7.35;3.78;;;;;;;29.75;38.48;101187.00;6221965;22;19933;-74
2023/06/12 08:50:00;;;;;;;11.70;3.80;;;;;;;30.28;36.30;101174.81;6164359;22;20379;31
2023/06/12 08:52:26;;;;;;;9.02;4.00;;;;;;;31.08;35.71;101190.25;6217496;22;20329;-77
2023/06/12 09:02:45;;;;;;;8.73;4.30;;;;;;;29.90;37.34;101180.91;6211720;22;20012;-79
2023/06/12 09:05:26;;;;;;;6.82;4.25;;;;;;;30.60;36.46;101180.13;6298627;22;20006;-77
2023/06/12 09:07:53;;;;;;;10.90;4.05;;;;;;;31.22;36.12;101184.28;6297088;22;20008;-79
2023/06/12 09:10:18;;;;;;;8.70;4.50;;;;;;;30.50;35.48;101182.69;6298618;22;20035;-76
2023/06/12 09:12:45;;;;;;;16.27;4.43;;;;;;;30.84;36.88;101177.25;6237638;22;20015;-77
2023/06/12 09:17:56;;;;;;;7.35;3.90;;;;;;;31.12;35.05;101174.50;6221956;22;20034;-75
2023/06/12 09:20:24;;;;;;;9.57;4.15;;;;;;;30.84;36.02;101175.25;6247464;22;20008;-77
2023/06/12 09:41:00;;;;;;;6.25;3.45;;;;;;;31.97;33.66;101148.34;6278368;22;20030;-79
2023/06/12 09:43:26;;;;;;;7.10;4.10;;;;;;;31.73;33.61;101161.81;6290609;22;20505;-78
2023/06/12 09:45:52;;;;;;;17.48;4.55;;;;;;;31.56;34.48;101154.13;6300379;22;20026;-77
2023/06/12 09:48:17;;;;;;;10.57;4.38;;;;;;;31.43;33.82;101169.44;6301364;22;20000;-75
2023/06/12 09:55:53;;;;;;;6.72;3.88;;;;;;;31.59;34.55;101167.78;6241768;22;20004;-78
2023/06/12 09:58:20;;;;;;;14.10;4.40;;;;;;;31.17;34.75;101162.41;6251447;22;20010;-76
2023/06/12 10:03:17;;;;;;;12.07;4.10;;;;;;;31.25;35.49;101163.97;6303048;22;20071;-77
2023/06/12 10:05:48;;;;;;;7.30;3.92;;;;;;;31.67;33.51;101160.88;6216737;22;20018;-75
2023/06/12 10:08:16;;;;;;;4.30;3.67;;;;;;;31.48;33.85;101158.22;6297311;22;20019;-78
2023/06/12 10:10:43;;;;;;;11.02;4.10;;;;;;;31.15;34.34;101142.84;6192192;22;20090;-76
2023/06/12 10:13:10;;;;;;;6.90;3.90;;;;;;;31.36;34.19;101159.41;6218656;22;20051;-77
2023/06/12 10:15:35;;;;;;;7.65;4.10;;;;;;;31.61;33.55;101148.56;6216810;23;20340;-80
2023/06/12 10:18:01;;;;;;;5.85;3.58;;;;;;;32.10;32.86;101158.50;6164722;23;20021;-79
2023/06/12 10:20:30;;;;;;;9.57;4.10;;;;;;;31.84;32.07;101150.38;6189057;23;20020;-78
2023/06/12 10:22:56;;;;;;;14.05;3.97;;;;;;;31.68;32.79;101148.41;6214513;23;20066;-81
2023/06/12 10:25:23;;;;;;;3.63;3.33;;;;;;;31.94;32.93;101146.88;6163024;23;20019;-80
2023/06/12 10:27:49;;;;;;;13.27;4.00;;;;;;;32.12;33.42;101136.44;6215025;23;20027;-78
2023/06/12 10:30:18;;;;;;;10.70;4.15;;;;;;;32.37;32.01;101150.13;6188303;23;20043;-79
2023/06/12 10:32:45;;;;;;;4.68;3.53;;;;;;;31.95;32.94;101147.75;6163004;23;20129;-79
2023/06/12 10:35:11;;;;;;;4.20;3.40;;;;;;;31.23;32.66;101149.25;6213572;23;20019;-79
2023/06/12 10:37:42;;;;;;;6.03;4.20;;;;;;;31.76;33.10;101147.13;6213715;23;20103;-80
2023/06/12 10:40:16;;;;;;;7.20;3.90;;;;;;;32.69;30.48;101146.66;6213049;23;20016;-80
2023/06/12 10:42:47;;;;;;;5.30;3.50;;;;;;;32.10;31.32;101148.03;6187431;23;20479;-79
2023/06/12 10:45:24;;;;;;;6.68;3.65;;;;;;;32.06;30.72;101136.31;6212901;23;20016;-79
2023/06/12 10:48:08;;;;;;;4.80;3.60;;;;;;;31.89;32.30;101135.47;6163049;23;20021;-80
2023/06/12 10:50:35;;;;;;;7.57;4.05;;;;;;;31.78;32.37;101125.06;6235217;23;20050;-79
2023/06/12 10:53:05;;;;;;;7.60;3.92;;;;;;;31.76;32.97;101125.31;6186741;23;20067;-79
2023/06/12 10:55:32;;;;;;;7.45;3.97;;;;;;;31.90;32.95;101123.03;6215125;23;20001;-79
2023/06/12 10:58:03;;;;;;;6.50;4.05;;;;;;;32.16;32.71;101118.66;6213628;23;20456;-79
2023/06/12 11:00:36;;;;;;;5.60;3.17;;;;;;;32.51;31.49;101119.44;6217227;23;20011;-78
2023/06/12 11:03:12;;;;;;;4.05;3.63;;;;;;;31.94;31.80;101123.38;6216865;23;20020;-78
2023/06/12 11:05:45;;;;;;;8.38;3.83;;;;;;;31.70;31.80;101115.91;6239064;23;20013;-79
2023/06/12 11:08:11;;;;;;;6.65;4.20;;;;;;;31.49;33.47;101123.13;6219153;23;20382;-78
2023/06/12 11:10:38;;;;;;;7.32;3.45;;;;;;;31.94;31.47;101114.88;6188753;23;20039;-79
2023/06/12 11:13:04;;;;;;;6.75;3.85;;;;;;;32.04;31.91;101112.19;6213188;23;20004;-77
2023/06/12 11:15:33;;;;;;;6.82;4.22;;;;;;;32.09;31.11;101119.94;6212096;23;20082;-79
2023/06/12 11:18:03;;;;;;;7.80;4.32;;;;;;;31.45;31.41;101121.06;6213012;23;20016;-81
2023/06/12 11:20:29;;;;;;;6.60;3.67;;;;;;;31.72;32.01;101117.63;6237905;23;20004;-80
2023/06/12 11:23:02;;;;;;;7.40;4.03;;;;;;;32.14;31.81;101112.41;6211366;23;20016;-78
2023/06/12 11:25:34;;;;;;;4.10;3.70;;;;;;;32.19;30.92;101111.59;6164695;23;20040;-82
2023/06/12 11:28:00;;;;;;;7.32;4.03;;;;;;;31.89;31.99;101112.81;6213056;23;20012;-80
2023/06/12 11:30:26;;;;;;;11.13;4.60;;;;;;;31.75;32.49;101112.31;6214229;23;20380;-77
2023/06/12 11:32:51;;;;;;;7.50;3.78;;;;;;;31.74;33.85;101102.06;6190667;23;20043;-79
2023/06/12 11:35:16;;;;;;;6.30;3.47;;;;;;;31.92;33.15;101105.78;6213073;23;20051;-78
2023/06/12 11:37:45;;;;;;;9.10;4.43;;;;;;;31.48;31.95;101103.56;6164257;23;20017;-78
2023/06/12 11:40:13;;;;;;;5.38;3.85;;;;;;;31.52;31.18;101110.47;6189098;23;20345;-81
2023/06/12 11:42:45;;;;;;;7.93;3.55;;;;;;;30.66;31.66;101111.25;6191213;23;20013;-80
2023/06/12 11:45:13;;;;;;;6.72;4.15;;;;;;;30.82;33.20;101112.44;6217639;23;20488;-80
2023/06/12 11:47:40;;;;;;;8.93;3.78;;;;;;;31.44;31.93;101105.22;6218035;23;20111;-80
2023/06/12 11:50:19;;;;;;;5.88;4.07;;;;;;;31.35;32.70;101101.91;6215589;23;20008;-81
2023/06/12 11:52:45;;;;;;;4.50;4.00;;;;;;;31.10;31.02;101105.97;6191935;23;20459;-79
2023/06/12 11:55:13;;;;;;;4.60;3.92;;;;;;;31.25;32.04;101102.59;6190612;23;20016;-79
2023/06/12 11:57:39;;;;;;;8.90;4.00;;;;;;;31.05;32.08;101096.53;6217443;23;20023;-80
2023/06/12 12:00:13;;;;;;;8.02;4.05;;;;;;;31.36;31.51;101088.66;6216055;23;20012;-78
2023/06/12 12:02:51;;;;;;;8.75;3.83;;;;;;;31.07;31.84;101092.34;6257471;23;20012;-79
2023/06/12 12:05:22;;;;;;;7.00;3.90;;;;;;;31.04;31.34;101100.47;6216261;23;20012;-80
2023/06/12 12:07:59;;;;;;;4.55;3.45;;;;;;;31.18;32.04;101092.56;6201519;23;20016;-77
2023/06/12 12:10:29;;;;;;;4.30;3.70;;;;;;;31.10;31.36;101093.81;6230181;23;20008;-78
2023/06/12 12:13:01;;;;;;;5.60;3.47;;;;;;;31.28;31.01;101093.59;6159107;23;20013;-78
2023/06/12 12:15:29;;;;;;;7.47;3.67;;;;;;;31.31;31.23;101095.91;6229871;23;20019;-78
2023/06/12 12:17:55;;;;;;;9.23;3.42;;;;;;;31.21;31.64;101087.25;6228606;23;20023;-78
2023/06/12 12:20:30;;;;;;;6.80;4.03;;;;;;;31.00;31.18;101080.31;6198860;23;20091;-78
2023/06/12 12:23:00;;;;;;;4.35;3.92;;;;;;;31.02;31.61;101086.56;6249596;23;20008;-77
2023/06/12 12:25:26;;;;;;;10.18;3.35;;;;;;;31.33;31.00;101076.69;6225654;23;20015;-78
2023/06/12 12:27:53;;;;;;;5.38;3.60;;;;;;;31.06;31.09;101081.31;6222289;23;20089;-79
2023/06/12 12:30:23;;;;;;;5.57;3.53;;;;;;;30.89;31.66;101076.38;6225813;23;20096;-77
2023/06/12 12:32:51;;;;;;;7.15;4.03;;;;;;;31.17;32.80;101080.34;6223664;23;20080;-77
2023/06/12 12:35:17;;;;;;;5.15;3.55;;;;;;;30.81;32.05;101076.78;6223954;23;20009;-79
2023/06/12 12:37:44;;;;;;;7.32;3.75;;;;;;;31.21;31.55;101073.09;6227064;23;20068;-77
2023/06/12 12:40:11;;;;;;;7.55;3.45;;;;;;;31.38;31.53;101075.94;6201588;23;20482;-78
2023/06/12 12:42:52;;;;;;;3.97;3.20;;;;;;;31.29;31.24;101069.84;6246921;23;20008;-77
2023/06/12 12:45:19;;;;;;;4.05;3.65;;;;;;;31.64;29.95;101071.63;6247399;23;20043;-79
2023/06/12 12:47:47;;;;;;;4.68;3.47;;;;;;;31.48;30.81;101052.63;6221023;23;20036;-78
2023/06/12 12:50:13;;;;;;;3.67;2.97;;;;;;;31.46;30.87;101057.69;6223900;23;20021;-78
2023/06/12 12:52:39;;;;;;;3.55;3.25;;;;;;;31.66;30.86;101057.19;6200362;23;20012;-79
2023/06/12 12:55:06;;;;;;;3.70;3.40;;;;;;;31.59;31.84;101054.53;6200281;23;20313;-78
2023/06/12 12:57:35;;;;;;;5.93;3.55;;;;;;;31.99;30.73;101059.16;6201646;23;20127;-76
2023/06/12 13:00:07;;;;;;;4.78;3.50;;;;;;;31.99;26.75;101056.34;6229320;23;20074;-77
2023/06/12 13:02:33;;;;;;;4.78;3.17;;;;;;;31.56;26.99;101059.88;6202864;23;20027;-78
2023/06/12 13:04:58;;;;;;;5.47;3.30;;;;;;;31.42;27.58;101050.81;6239342;23;20019;-77
2023/06/12 13:07:24;;;;;;;5.72;3.42;;;;;;;31.26;27.94;101047.72;6186009;23;20028;-77
2023/06/12 13:09:49;;;;;;;5.57;3.08;;;;;;;31.52;26.99;101059.53;6176341;23;20028;-79
2023/06/12 13:12:15;;;;;;;4.30;3.20;;;;;;;31.63;26.81;101054.88;6219718;23;20008;-79
2023/06/12 13:14:40;;;;;;;5.63;2.78;;;;;;;31.44;26.75;101045.78;6219685;23;20344;-79
2023/06/12 13:17:06;;;;;;;5.82;3.25;;;;;;;31.21;27.35;101053.28;6166257;23;20016;-80
2023/06/12 13:19:31;;;;;;;5.47;3.63;;;;;;;31.23;28.03;101047.38;6217300;23;20020;-80
2023/06/12 13:21:57;;;;;;;5.25;3.25;;;;;;;31.08;27.42;101042.28;6192238;23;20069;-78
2023/06/12 13:24:23;;;;;;;3.33;3.03;;;;;;;31.38;27.01;101055.28;6144010;23;20106;-76
2023/06/12 13:26:48;;;;;;;4.20;3.33;;;;;;;31.60;28.81;101035.56;6204798;23;20009;-76
2023/06/12 13:29:14;;;;;;;5.82;3.00;;;;;;;31.56;27.22;101049.38;6151012;23;20012;-79